createdAt,value
2018-05-24T00:00:05.760Z,0
2018-05-24T00:01:07.794Z,0
2018-05-24T00:02:10.116Z,0
2018-05-24T00:03:12.153Z,0
2018-05-24T00:04:14.196Z,0
2018-05-24T00:05:16.235Z,0
2018-05-24T00:06:18.579Z,0
2018-05-24T00:07:21.007Z,0
2018-05-24T00:08:23.045Z,0
2018-05-24T00:09:25.386Z,0
2018-05-24T00:10:27.423Z,0
2018-05-24T00:11:29.743Z,0
2018-05-24T00:12:31.783Z,0
2018-05-24T00:13:33.829Z,0
2018-05-24T00:14:35.867Z,0
2018-05-24T00:15:37.913Z,0
2018-05-24T00:16:39.980Z,0
2018-05-24T00:17:42.001Z,0
2018-05-24T00:18:44.031Z,0
2018-05-24T00:19:46.073Z,0
2018-05-24T00:20:48.108Z,0
2018-05-24T00:21:50.147Z,0
2018-05-24T00:22:52.465Z,0
2018-05-24T00:23:54.499Z,0
2018-05-24T00:24:56.541Z,0
2018-05-24T00:25:58.575Z,0
2018-05-24T00:27:00.612Z,0
2018-05-24T00:28:02.940Z,0
2018-05-24T00:29:04.978Z,0
2018-05-24T00:30:07.021Z,0
2018-05-24T00:31:09.058Z,0
2018-05-24T00:32:11.098Z,0
2018-05-24T00:33:13.137Z,0
2018-05-24T00:34:15.183Z,0
2018-05-24T00:35:17.254Z,0
2018-05-24T00:36:19.603Z,0
2018-05-24T00:37:21.637Z,0
2018-05-24T00:38:23.668Z,0
2018-05-24T00:39:25.701Z,0
2018-05-24T00:40:27.743Z,0
2018-05-24T00:41:29.781Z,0
2018-05-24T00:42:31.824Z,0
2018-05-24T00:43:33.868Z,0
2018-05-24T00:44:36.205Z,0
2018-05-24T00:45:38.235Z,0
2018-05-24T00:46:40.861Z,0
2018-05-24T00:47:42.898Z,0
2018-05-24T00:48:44.937Z,0
2018-05-24T00:49:46.975Z,0
2018-05-24T00:50:49.010Z,0
2018-05-24T00:51:51.047Z,0
2018-05-24T00:52:53.077Z,0
2018-05-24T00:53:55.497Z,0
2018-05-24T00:54:57.540Z,0
2018-05-24T00:55:59.580Z,0
2018-05-24T00:57:02.011Z,0
2018-05-24T00:58:04.053Z,0
2018-05-24T00:59:07.072Z,0
2018-05-24T01:00:09.121Z,0
2018-05-24T01:01:11.152Z,0
2018-05-24T01:02:13.476Z,0
2018-05-24T01:03:15.525Z,0
2018-05-24T01:04:17.562Z,0
2018-05-24T01:05:19.635Z,0
2018-05-24T01:06:21.672Z,0
2018-05-24T01:07:23.712Z,0
2018-05-24T01:08:25.751Z,0
2018-05-24T01:09:27.784Z,0
2018-05-24T01:10:29.830Z,0
2018-05-24T01:11:32.259Z,0
2018-05-24T01:12:34.678Z,0
2018-05-24T01:13:36.720Z,0
2018-05-24T01:14:38.753Z,0
2018-05-24T01:15:40.869Z,0
2018-05-24T01:16:42.831Z,0
2018-05-24T01:17:44.873Z,0
2018-05-24T01:18:46.923Z,0
2018-05-24T01:19:48.956Z,0
2018-05-24T01:20:50.989Z,0
2018-05-24T01:21:53.033Z,0
2018-05-24T01:22:55.457Z,0
2018-05-24T01:23:57.504Z,0
2018-05-24T01:24:59.543Z,0
2018-05-24T01:26:01.588Z,0
2018-05-24T01:27:03.625Z,0
2018-05-24T01:28:05.649Z,0
2018-05-24T01:29:08.466Z,0
2018-05-24T01:30:10.501Z,0
2018-05-24T01:31:12.544Z,0
2018-05-24T01:32:14.582Z,0
2018-05-24T01:33:16.626Z,0
2018-05-24T01:34:19.040Z,0
2018-05-24T01:35:21.091Z,0
2018-05-24T01:36:23.132Z,0
2018-05-24T01:37:25.174Z,0
2018-05-24T01:38:27.213Z,0
2018-05-24T01:39:29.638Z,0
2018-05-24T01:40:31.664Z,0
2018-05-24T01:41:33.704Z,0
2018-05-24T01:42:35.748Z,0
2018-05-24T01:43:37.786Z,0
2018-05-24T01:44:39.820Z,0
2018-05-24T01:45:41.860Z,0
2018-05-24T01:46:43.897Z,0
2018-05-24T01:47:45.939Z,0
2018-05-24T01:48:48.254Z,0
2018-05-24T01:49:50.291Z,0
2018-05-24T01:50:52.325Z,0
2018-05-24T01:51:54.367Z,0
2018-05-24T01:52:56.399Z,0
2018-05-24T01:53:58.451Z,0
2018-05-24T01:55:00.484Z,0
2018-05-24T01:56:02.518Z,0
2018-05-24T01:57:04.555Z,0
2018-05-24T01:58:06.592Z,0
2018-05-24T01:59:09.199Z,0
2018-05-24T02:00:11.245Z,0
2018-05-24T02:01:13.290Z,0
2018-05-24T02:02:15.332Z,0
2018-05-24T02:03:17.362Z,0
2018-05-24T02:04:19.696Z,0
2018-05-24T02:05:21.733Z,0
2018-05-24T02:06:23.770Z,0
2018-05-24T02:07:25.812Z,0
2018-05-24T02:08:27.836Z,0
2018-05-24T02:09:29.871Z,0
2018-05-24T02:10:31.911Z,0
2018-05-24T02:11:33.943Z,0
2018-05-24T02:12:35.980Z,0
2018-05-24T02:13:38.022Z,0
2018-05-24T02:14:40.054Z,0
2018-05-24T02:15:42.108Z,0
2018-05-24T02:16:44.424Z,0
2018-05-24T02:17:46.466Z,0
2018-05-24T02:18:48.501Z,0
2018-05-24T02:19:50.594Z,0
2018-05-24T02:20:52.576Z,0
2018-05-24T02:21:54.613Z,0
2018-05-24T02:22:56.649Z,0
2018-05-24T02:23:58.697Z,0
2018-05-24T02:25:00.723Z,0
2018-05-24T02:26:02.766Z,0
2018-05-24T02:27:04.791Z,0
2018-05-24T02:28:06.829Z,0
2018-05-24T02:29:09.285Z,0
2018-05-24T02:30:11.313Z,0
2018-05-24T02:31:13.745Z,0
2018-05-24T02:32:16.089Z,0
2018-05-24T02:33:18.120Z,0
2018-05-24T02:34:20.546Z,0
2018-05-24T02:35:22.573Z,0
2018-05-24T02:36:25.011Z,0
2018-05-24T02:37:27.052Z,0
2018-05-24T02:38:29.095Z,0
2018-05-24T02:39:31.133Z,0
2018-05-24T02:40:33.172Z,0
2018-05-24T02:41:35.211Z,0
2018-05-24T02:42:38.024Z,0
2018-05-24T02:43:40.371Z,0
2018-05-24T02:44:42.714Z,0
2018-05-24T02:45:45.031Z,0
2018-05-24T02:46:47.073Z,0
2018-05-24T02:47:49.398Z,0
2018-05-24T02:48:51.418Z,0
2018-05-24T02:49:53.755Z,0
2018-05-24T02:50:56.106Z,0
2018-05-24T02:51:58.145Z,0
2018-05-24T02:53:00.197Z,1
2018-05-24T02:54:02.617Z,1
2018-05-24T02:55:04.655Z,1
2018-05-24T02:56:06.690Z,1
2018-05-24T02:57:09.422Z,1
2018-05-24T02:58:11.471Z,1
2018-05-24T02:59:13.793Z,1
2018-05-24T03:00:15.825Z,1
2018-05-24T03:01:18.166Z,1
2018-05-24T03:02:20.473Z,2
2018-05-24T03:03:22.516Z,2
2018-05-24T03:04:25.220Z,2
2018-05-24T03:05:27.577Z,2
2018-05-24T03:06:29.619Z,2
2018-05-24T03:07:31.653Z,2
2018-05-24T03:08:33.686Z,3
2018-05-24T03:09:35.730Z,3
2018-05-24T03:10:37.771Z,3
2018-05-24T03:11:39.821Z,3
2018-05-24T03:12:42.141Z,3
2018-05-24T03:13:44.467Z,4
2018-05-24T03:14:46.490Z,4
2018-05-24T03:15:48.912Z,4
2018-05-24T03:16:51.346Z,4
2018-05-24T03:17:53.674Z,4
2018-05-24T03:18:55.710Z,5
2018-05-24T03:19:58.137Z,5
2018-05-24T03:21:00.179Z,5
2018-05-24T03:22:02.224Z,5
2018-05-24T03:23:04.260Z,6
2018-05-24T03:24:06.299Z,6
2018-05-24T03:25:08.331Z,6
2018-05-24T03:26:10.370Z,6
2018-05-24T03:27:12.411Z,7
2018-05-24T03:28:14.448Z,7
2018-05-24T03:29:16.477Z,7
2018-05-24T03:30:19.593Z,8
2018-05-24T03:31:21.639Z,8
2018-05-24T03:32:23.664Z,8
2018-05-24T03:33:25.702Z,8
2018-05-24T03:34:27.736Z,9
2018-05-24T03:35:29.776Z,9
2018-05-24T03:36:32.186Z,9
2018-05-24T03:37:34.216Z,10
2018-05-24T03:38:36.266Z,10
2018-05-24T03:39:38.688Z,10
2018-05-24T03:40:40.718Z,10
2018-05-24T03:41:42.752Z,11
2018-05-24T03:42:44.795Z,11
2018-05-24T03:43:47.124Z,11
2018-05-24T03:44:49.449Z,11
2018-05-24T03:45:51.483Z,12
2018-05-24T03:46:53.524Z,12
2018-05-24T03:47:55.557Z,12
2018-05-24T03:48:57.592Z,13
2018-05-24T03:49:59.935Z,13
2018-05-24T03:51:01.969Z,13
2018-05-24T03:52:04.437Z,13
2018-05-24T03:53:06.473Z,14
2018-05-24T03:54:08.512Z,14
2018-05-24T03:55:10.541Z,14
2018-05-24T03:56:12.586Z,14
2018-05-24T03:57:14.626Z,15
2018-05-24T03:58:16.667Z,15
2018-05-24T03:59:18.700Z,15
2018-05-24T04:00:20.737Z,16
2018-05-24T04:01:22.775Z,16
2018-05-24T04:02:24.822Z,16
2018-05-24T04:03:26.857Z,16
2018-05-24T04:04:28.893Z,17
2018-05-24T04:05:31.205Z,17
2018-05-24T04:06:33.244Z,17
2018-05-24T04:07:35.571Z,17
2018-05-24T04:08:37.610Z,18
2018-05-24T04:09:39.641Z,18
2018-05-24T04:10:41.694Z,18
2018-05-24T04:11:43.716Z,18
2018-05-24T04:12:45.759Z,18
2018-05-24T04:13:48.192Z,18
2018-05-24T04:14:50.515Z,18
2018-05-24T04:15:52.845Z,18
2018-05-24T04:16:54.898Z,19
2018-05-24T04:17:57.223Z,19
2018-05-24T04:18:59.267Z,19
2018-05-24T04:20:01.299Z,19
2018-05-24T04:21:03.342Z,19
2018-05-24T04:22:05.666Z,20
2018-05-24T04:23:08.024Z,20
2018-05-24T04:24:10.632Z,20
2018-05-24T04:25:12.959Z,20
2018-05-24T04:26:15.390Z,20
2018-05-24T04:27:17.728Z,21
2018-05-24T04:28:19.757Z,21
2018-05-24T04:29:21.804Z,21
2018-05-24T04:30:23.841Z,21
2018-05-24T04:31:25.883Z,22
2018-05-24T04:32:27.932Z,22
2018-05-24T04:33:29.969Z,22
2018-05-24T04:34:32.021Z,22
2018-05-24T04:35:34.066Z,22
2018-05-24T04:36:36.102Z,23
2018-05-24T04:37:38.151Z,23
2018-05-24T04:38:40.185Z,23
2018-05-24T04:39:42.518Z,23
2018-05-24T04:40:44.561Z,23
2018-05-24T04:41:46.604Z,24
2018-05-24T04:42:48.643Z,24
2018-05-24T04:43:50.674Z,24
2018-05-24T04:44:52.714Z,24
2018-05-24T04:45:54.757Z,24
2018-05-24T04:46:56.805Z,25
2018-05-24T04:47:59.136Z,25
2018-05-24T04:49:01.171Z,25
2018-05-24T04:50:03.503Z,25
2018-05-24T04:51:05.542Z,25
2018-05-24T04:52:07.669Z,26
2018-05-24T04:53:09.624Z,26
2018-05-24T04:54:11.670Z,26
2018-05-24T04:55:13.713Z,26
2018-05-24T04:56:16.134Z,26
2018-05-24T04:57:18.176Z,26
2018-05-24T04:58:20.215Z,27
2018-05-24T04:59:22.559Z,27
2018-05-24T05:00:24.603Z,27
2018-05-24T05:01:26.954Z,27
2018-05-24T05:02:29.280Z,27
2018-05-24T05:03:31.324Z,27
2018-05-24T05:04:33.356Z,27
2018-05-24T05:05:35.406Z,28
2018-05-24T05:06:37.450Z,28
2018-05-24T05:07:39.490Z,28
2018-05-24T05:08:41.527Z,29
2018-05-24T05:09:43.563Z,29
2018-05-24T05:10:45.591Z,29
2018-05-24T05:11:47.631Z,29
2018-05-24T05:12:49.671Z,29
2018-05-24T05:13:51.999Z,29
2018-05-24T05:14:54.343Z,30
2018-05-24T05:15:56.663Z,30
2018-05-24T05:16:59.007Z,30
2018-05-24T05:18:01.047Z,30
2018-05-24T05:19:03.088Z,30
2018-05-24T05:20:05.122Z,30
2018-05-24T05:21:07.162Z,30
2018-05-24T05:22:09.212Z,30
2018-05-24T05:23:11.675Z,30
2018-05-24T05:24:13.596Z,30
2018-05-24T05:25:15.709Z,30
2018-05-24T05:26:18.063Z,30
2018-05-24T05:27:20.090Z,31
2018-05-24T05:28:22.134Z,31
2018-05-24T05:29:24.171Z,31
2018-05-24T05:30:26.210Z,31
2018-05-24T05:31:28.643Z,31
2018-05-24T05:32:30.977Z,32
2018-05-24T05:33:33.025Z,32
2018-05-24T05:34:35.069Z,32
2018-05-24T05:35:37.497Z,32
2018-05-24T05:36:39.553Z,32
2018-05-24T05:37:41.596Z,32
2018-05-24T05:38:43.935Z,32
2018-05-24T05:39:46.259Z,33
2018-05-24T05:40:48.294Z,33
2018-05-24T05:41:50.332Z,33
2018-05-24T05:42:52.368Z,33
2018-05-24T05:43:54.406Z,33
2018-05-24T05:44:57.034Z,35
2018-05-24T05:45:58.981Z,34
2018-05-24T05:47:01.020Z,34
2018-05-24T05:48:03.357Z,34
2018-05-24T05:49:05.397Z,34
2018-05-24T05:50:07.444Z,34
2018-05-24T05:51:09.480Z,34
2018-05-24T05:52:11.563Z,35
2018-05-24T05:53:13.558Z,35
2018-05-24T05:54:15.990Z,35
2018-05-24T05:55:18.019Z,35
2018-05-24T05:56:20.062Z,35
2018-05-24T05:57:22.948Z,35
2018-05-24T05:58:25.373Z,35
2018-05-24T05:59:27.409Z,36
2018-05-24T06:00:29.754Z,36
2018-05-24T06:01:31.803Z,36
2018-05-24T06:02:33.832Z,36
2018-05-24T06:03:35.875Z,36
2018-05-24T06:04:37.923Z,36
2018-05-24T06:05:39.958Z,36
2018-05-24T06:06:42.287Z,36
2018-05-24T06:07:44.321Z,38
2018-05-24T06:08:46.757Z,37
2018-05-24T06:09:48.792Z,37
2018-05-24T06:10:50.834Z,37
2018-05-24T06:11:53.163Z,37
2018-05-24T06:12:55.205Z,37
2018-05-24T06:13:57.335Z,37
2018-05-24T06:14:59.281Z,37
2018-05-24T06:16:01.318Z,38
2018-05-24T06:17:03.354Z,38
2018-05-24T06:18:05.390Z,38
2018-05-24T06:19:07.439Z,38
2018-05-24T06:20:09.482Z,38
2018-05-24T06:21:11.905Z,38
2018-05-24T06:22:13.942Z,38
2018-05-24T06:23:15.987Z,38
2018-05-24T06:24:18.023Z,39
2018-05-24T06:25:20.089Z,39
2018-05-24T06:26:22.118Z,39
2018-05-24T06:27:24.164Z,39
2018-05-24T06:28:26.592Z,39
2018-05-24T06:29:28.557Z,39
2018-05-24T06:30:30.601Z,39
2018-05-24T06:31:32.931Z,39
2018-05-24T06:32:34.972Z,40
2018-05-24T06:33:37.012Z,40
2018-05-24T06:34:39.055Z,40
2018-05-24T06:35:41.483Z,40
2018-05-24T06:36:43.528Z,40
2018-05-24T06:37:45.571Z,40
2018-05-24T06:38:47.606Z,40
2018-05-24T06:39:49.647Z,40
2018-05-24T06:40:51.746Z,40
2018-05-24T06:41:54.199Z,40
2018-05-24T06:42:56.236Z,41
2018-05-24T06:43:58.279Z,41
2018-05-24T06:45:00.319Z,41
2018-05-24T06:46:02.661Z,41
2018-05-24T06:47:04.752Z,41
2018-05-24T06:48:07.501Z,41
2018-05-24T06:49:09.541Z,41
2018-05-24T06:50:11.574Z,41
2018-05-24T06:51:13.621Z,41
2018-05-24T06:52:15.663Z,41
2018-05-24T06:53:17.708Z,41
2018-05-24T06:54:19.760Z,42
2018-05-24T06:55:21.804Z,41
2018-05-24T06:56:24.518Z,41
2018-05-24T06:57:26.557Z,41
2018-05-24T06:58:28.602Z,41
2018-05-24T06:59:30.650Z,41
2018-05-24T07:00:32.691Z,41
2018-05-24T07:01:34.742Z,41
2018-05-24T07:02:36.785Z,42
2018-05-24T07:03:38.820Z,43
2018-05-24T07:04:40.867Z,42
2018-05-24T07:05:42.909Z,43
2018-05-24T07:06:45.251Z,42
2018-05-24T07:07:47.292Z,42
2018-05-24T07:08:49.326Z,42
2018-05-24T07:09:51.373Z,43
2018-05-24T07:10:53.749Z,43
2018-05-24T07:11:55.787Z,43
2018-05-24T07:12:57.835Z,43
2018-05-24T07:13:59.857Z,43
2018-05-24T07:15:01.901Z,44
2018-05-24T07:16:03.952Z,44
2018-05-24T07:17:05.995Z,44
2018-05-24T07:18:08.044Z,44
2018-05-24T07:19:10.090Z,44
2018-05-24T07:20:12.132Z,45
2018-05-24T07:21:14.161Z,45
2018-05-24T07:22:16.207Z,45
2018-05-24T07:23:18.543Z,45
2018-05-24T07:24:20.585Z,45
2018-05-24T07:25:22.914Z,45
2018-05-24T07:26:24.958Z,45
2018-05-24T07:27:27.004Z,46
2018-05-24T07:28:29.053Z,46
2018-05-24T07:29:31.101Z,46
2018-05-24T07:30:33.147Z,46
2018-05-24T07:31:35.191Z,46
2018-05-24T07:32:37.231Z,46
2018-05-24T07:33:39.276Z,47
2018-05-24T07:34:41.327Z,47
2018-05-24T07:35:43.757Z,47
2018-05-24T07:36:45.800Z,47
2018-05-24T07:37:48.260Z,47
2018-05-24T07:38:50.286Z,47
2018-05-24T07:39:52.617Z,47
2018-05-24T07:40:54.661Z,48
2018-05-24T07:41:56.719Z,48
2018-05-24T07:42:58.761Z,48
2018-05-24T07:44:00.809Z,48
2018-05-24T07:45:03.320Z,48
2018-05-24T07:46:05.330Z,48
2018-05-24T07:47:07.763Z,49
2018-05-24T07:48:10.203Z,49
2018-05-24T07:49:12.248Z,49
2018-05-24T07:50:14.289Z,49
2018-05-24T07:51:16.335Z,49
2018-05-24T07:52:18.374Z,49
2018-05-24T07:53:20.413Z,50
2018-05-24T07:54:22.844Z,50
2018-05-24T07:55:24.885Z,50
2018-05-24T07:56:26.946Z,50
2018-05-24T07:57:28.991Z,50
2018-05-24T07:58:31.334Z,50
2018-05-24T07:59:33.383Z,51
2018-05-24T08:00:35.424Z,51
2018-05-24T08:01:37.547Z,51
2018-05-24T08:02:39.510Z,51
2018-05-24T08:03:41.555Z,52
2018-05-24T08:04:43.599Z,52
2018-05-24T08:05:45.641Z,52
2018-05-24T08:06:47.694Z,52
2018-05-24T08:07:50.315Z,52
2018-05-24T08:08:52.660Z,53
2018-05-24T08:09:55.386Z,54
2018-05-24T08:10:57.429Z,53
2018-05-24T08:11:59.857Z,54
2018-05-24T08:13:01.902Z,54
2018-05-24T08:14:04.245Z,54
2018-05-24T08:15:06.302Z,54
2018-05-24T08:16:08.350Z,54
2018-05-24T08:17:10.396Z,54
2018-05-24T08:18:12.433Z,55
2018-05-24T08:19:14.484Z,55
2018-05-24T08:20:17.121Z,58
2018-05-24T08:21:19.167Z,99
2018-05-24T08:22:21.220Z,122
2018-05-24T08:23:23.271Z,123
2018-05-24T08:24:25.312Z,130
2018-05-24T08:25:27.355Z,125
2018-05-24T08:26:29.402Z,130
2018-05-24T08:27:31.458Z,126
2018-05-24T08:28:33.812Z,128
2018-05-24T08:29:35.853Z,121
2018-05-24T08:30:37.895Z,129
2018-05-24T08:31:39.952Z,144
2018-05-24T08:32:42.002Z,254
2018-05-24T08:33:45.124Z,339
2018-05-24T08:34:47.563Z,373
2018-05-24T08:35:49.894Z,387
2018-05-24T08:36:51.931Z,404
2018-05-24T08:37:53.979Z,443
2018-05-24T08:38:56.029Z,453
2018-05-24T08:39:58.076Z,480
2018-05-24T08:41:00.217Z,473
2018-05-24T08:42:02.158Z,456
2018-05-24T08:43:04.201Z,440
2018-05-24T08:44:06.250Z,403
2018-05-24T08:45:08.296Z,373
2018-05-24T08:46:10.355Z,395
2018-05-24T08:47:12.813Z,365
2018-05-24T08:48:14.754Z,379
2018-05-24T08:49:16.802Z,405
2018-05-24T08:50:18.849Z,399
2018-05-24T08:51:20.903Z,391
2018-05-24T08:52:22.952Z,422
2018-05-24T08:53:25.087Z,391
2018-05-24T08:54:27.053Z,437
2018-05-24T08:55:29.099Z,518
2018-05-24T08:56:31.434Z,486
2018-05-24T08:57:33.476Z,433
2018-05-24T08:58:35.527Z,453
2018-05-24T08:59:37.576Z,471
2018-05-24T09:00:39.615Z,413
2018-05-24T09:01:41.672Z,389
2018-05-24T09:02:43.722Z,418
2018-05-24T09:03:46.070Z,429
2018-05-24T09:04:48.102Z,215
2018-05-24T09:05:50.150Z,432
2018-05-24T09:06:52.484Z,406
2018-05-24T09:07:54.530Z,386
2018-05-24T09:08:56.976Z,420
2018-05-24T09:09:58.917Z,452
2018-05-24T09:11:00.960Z,483
2018-05-24T09:12:03.414Z,428
2018-05-24T09:13:05.452Z,399
2018-05-24T09:14:07.506Z,452
2018-05-24T09:15:09.557Z,501
2018-05-24T09:16:11.609Z,440
2018-05-24T09:17:13.658Z,415
2018-05-24T09:18:16.396Z,472
2018-05-24T09:19:18.723Z,432
2018-05-24T09:20:20.775Z,369
2018-05-24T09:21:22.870Z,360
2018-05-24T09:22:25.214Z,334
2018-05-24T09:23:27.265Z,353
2018-05-24T09:24:29.313Z,389
2018-05-24T09:25:31.656Z,356
2018-05-24T09:26:33.712Z,412
2018-05-24T09:27:36.072Z,430
2018-05-24T09:28:39.110Z,365
2018-05-24T09:29:41.162Z,395
2018-05-24T09:30:43.216Z,422
2018-05-24T09:31:45.266Z,395
2018-05-24T09:32:47.311Z,430
2018-05-24T09:33:49.375Z,439
2018-05-24T09:34:51.426Z,443
2018-05-24T09:35:53.851Z,482
2018-05-24T09:36:55.937Z,491
2018-05-24T09:37:58.085Z,482
2018-05-24T09:39:01.350Z,510
2018-05-24T09:40:04.444Z,522
2018-05-24T09:41:06.832Z,546
2018-05-24T09:42:09.297Z,564
2018-05-24T09:43:13.710Z,527
2018-05-24T09:44:16.100Z,500
2018-05-24T09:45:18.491Z,585
2018-05-24T09:46:21.433Z,516
2018-05-24T09:47:23.864Z,448
2018-05-24T09:48:26.953Z,398
2018-05-24T09:49:30.773Z,433
2018-05-24T09:50:32.981Z,519
2018-05-24T09:51:35.044Z,541
2018-05-24T09:52:37.739Z,511
2018-05-24T09:53:40.290Z,559
2018-05-24T09:54:42.455Z,524
2018-05-24T09:55:44.794Z,511
2018-05-24T09:56:48.486Z,528
2018-05-24T09:57:51.248Z,487
2018-05-24T09:58:53.693Z,544
2018-05-24T09:59:55.755Z,558
2018-05-24T10:00:57.932Z,560
2018-05-24T10:02:00.000Z,535
2018-05-24T10:03:02.651Z,533
2018-05-24T10:04:05.014Z,562
2018-05-24T10:05:08.081Z,582
2018-05-24T10:06:10.144Z,599
2018-05-24T10:07:12.420Z,556
2018-05-24T10:08:14.529Z,600
2018-05-24T10:09:18.201Z,620
2018-05-24T10:10:20.296Z,527
2018-05-24T10:11:22.493Z,528
2018-05-24T10:12:25.067Z,526
2018-05-24T10:13:27.201Z,571
2018-05-24T10:14:29.451Z,508
2018-05-24T10:15:31.918Z,513
2018-05-24T10:16:34.917Z,505
2018-05-24T10:17:36.926Z,506
2018-05-24T10:18:39.708Z,613
2018-05-24T10:19:42.132Z,587
2018-05-24T10:20:45.067Z,557
2018-05-24T10:21:47.680Z,582
2018-05-24T10:22:49.859Z,502
2018-05-24T10:23:52.052Z,544
2018-05-24T10:24:54.567Z,497
2018-05-24T10:25:56.634Z,500
2018-05-24T10:26:58.765Z,589
2018-05-24T10:28:01.939Z,568
2018-05-24T10:29:05.139Z,529
2018-05-24T10:30:07.489Z,545
2018-05-24T10:31:10.932Z,552
2018-05-24T10:32:13.061Z,502
2018-05-24T10:33:15.115Z,512
2018-05-24T10:34:17.174Z,584
2018-05-24T10:35:19.182Z,541
2018-05-24T10:36:21.237Z,518
2018-05-24T10:37:23.688Z,501
2018-05-24T10:38:26.029Z,507
2018-05-24T10:39:28.836Z,500
2018-05-24T10:40:30.891Z,534
2018-05-24T10:41:33.260Z,584
2018-05-24T10:42:35.327Z,543
2018-05-24T10:43:37.381Z,512
2018-05-24T10:44:39.444Z,538
2018-05-24T10:45:41.783Z,520
2018-05-24T10:46:43.838Z,593
2018-05-24T10:47:46.259Z,617
2018-05-24T10:48:48.316Z,552
2018-05-24T10:49:51.085Z,499
2018-05-24T10:50:53.627Z,613
2018-05-24T10:51:55.658Z,618
2018-05-24T10:52:57.727Z,599
2018-05-24T10:54:00.097Z,584
2018-05-24T10:55:02.181Z,507
2018-05-24T10:56:04.341Z,519
2018-05-24T10:57:06.322Z,547
2018-05-24T10:58:08.387Z,570
2018-05-24T10:59:10.444Z,485
2018-05-24T11:00:12.894Z,487
2018-05-24T11:01:15.646Z,580
2018-05-24T11:02:17.712Z,493
2018-05-24T11:03:20.260Z,507
2018-05-24T11:04:22.219Z,499
2018-05-24T11:05:24.558Z,418
2018-05-24T11:06:27.143Z,447
2018-05-24T11:07:29.194Z,581
2018-05-24T11:08:31.246Z,542
2018-05-24T11:09:33.305Z,521
2018-05-24T11:10:35.358Z,574
2018-05-24T11:11:37.492Z,570
2018-05-24T11:12:39.475Z,447
2018-05-24T11:13:41.543Z,467
2018-05-24T11:14:43.605Z,555
2018-05-24T11:15:45.654Z,561
2018-05-24T11:16:48.016Z,528
2018-05-24T11:17:50.072Z,589
2018-05-24T11:18:52.134Z,567
2018-05-24T11:19:54.198Z,606
2018-05-24T11:20:56.262Z,587
2018-05-24T11:21:58.387Z,510
2018-05-24T11:23:00.745Z,594
2018-05-24T11:24:03.100Z,612
2018-05-24T11:25:05.212Z,582
2018-05-24T11:26:07.613Z,595
2018-05-24T11:27:09.666Z,698
2018-05-24T11:28:11.725Z,637
2018-05-24T11:29:13.777Z,675
2018-05-24T11:30:16.119Z,702
2018-05-24T11:31:18.179Z,666
2018-05-24T11:32:20.255Z,656
2018-05-24T11:33:22.613Z,592
2018-05-24T11:34:24.665Z,608
2018-05-24T11:35:27.020Z,707
2018-05-24T11:36:29.072Z,751
2018-05-24T11:37:31.130Z,684
2018-05-24T11:38:33.189Z,681
2018-05-24T11:39:35.833Z,693
2018-05-24T11:40:38.486Z,661
2018-05-24T11:41:40.553Z,622
2018-05-24T11:42:43.001Z,601
2018-05-24T11:43:45.075Z,599
2018-05-24T11:44:47.134Z,611
2018-05-24T11:45:49.198Z,606
2018-05-24T11:46:51.538Z,611
2018-05-24T11:47:53.602Z,695
2018-05-24T11:48:55.941Z,697
2018-05-24T11:49:58.013Z,668
2018-05-24T11:51:00.075Z,623
2018-05-24T11:52:02.217Z,608
2018-05-24T11:53:04.193Z,603
2018-05-24T11:54:06.562Z,671
2018-05-24T11:55:08.614Z,711
2018-05-24T11:56:10.690Z,704
2018-05-24T11:57:12.741Z,660
2018-05-24T11:58:14.805Z,642
2018-05-24T11:59:16.862Z,614
2018-05-24T12:00:19.615Z,536
2018-05-24T12:01:21.672Z,538
2018-05-24T12:02:23.738Z,580
2018-05-24T12:03:25.800Z,563
2018-05-24T12:04:27.865Z,576
2018-05-24T12:05:29.911Z,612
2018-05-24T12:06:31.977Z,664
2018-05-24T12:07:34.031Z,647
2018-05-24T12:08:36.096Z,612
2018-05-24T12:09:38.157Z,523
2018-05-24T12:10:40.528Z,603
2018-05-24T12:11:42.591Z,767
2018-05-24T12:12:44.963Z,736
2018-05-24T12:13:47.020Z,576
2018-05-24T12:14:49.073Z,521
2018-05-24T12:15:51.136Z,551
2018-05-24T12:16:53.186Z,593
2018-05-24T12:17:55.247Z,645
2018-05-24T12:18:57.300Z,626
2018-05-24T12:19:59.371Z,655
2018-05-24T12:21:01.736Z,609
2018-05-24T12:22:03.806Z,617
2018-05-24T12:23:05.862Z,676
2018-05-24T12:24:07.921Z,630
2018-05-24T12:25:09.984Z,604
2018-05-24T12:26:12.041Z,604
2018-05-24T12:27:14.095Z,644
2018-05-24T12:28:16.455Z,642
2018-05-24T12:29:18.507Z,642
2018-05-24T12:30:20.572Z,697
2018-05-24T12:31:22.626Z,680
2018-05-24T12:32:24.694Z,673
2018-05-24T12:33:27.039Z,626
2018-05-24T12:34:29.099Z,593
2018-05-24T12:35:31.233Z,558
2018-05-24T12:36:33.222Z,493
2018-05-24T12:37:35.277Z,507
2018-05-24T12:38:37.337Z,491
2018-05-24T12:39:39.392Z,518
2018-05-24T12:40:41.463Z,300
2018-05-24T12:41:44.219Z,496
2018-05-24T12:42:46.205Z,539
2018-05-24T12:43:48.560Z,562
2018-05-24T12:44:50.624Z,527
2018-05-24T12:45:52.988Z,572
2018-05-24T12:46:55.051Z,650
2018-05-24T12:47:57.409Z,624
2018-05-24T12:48:59.804Z,608
2018-05-24T12:50:01.841Z,607
2018-05-24T12:51:03.898Z,535
2018-05-24T12:52:06.239Z,539
2018-05-24T12:53:08.987Z,503
2018-05-24T12:54:11.045Z,542
2018-05-24T12:55:13.378Z,631
2018-05-24T12:56:15.436Z,641
2018-05-24T12:57:17.494Z,551
2018-05-24T12:58:19.550Z,466
2018-05-24T12:59:21.895Z,559
2018-05-24T13:00:23.960Z,531
2018-05-24T13:01:26.312Z,469
2018-05-24T13:02:28.371Z,537
2018-05-24T13:03:30.430Z,574
2018-05-24T13:04:32.497Z,564
2018-05-24T13:05:34.558Z,532
2018-05-24T13:06:36.614Z,476
2018-05-24T13:07:39.065Z,479
2018-05-24T13:08:41.123Z,453
2018-05-24T13:09:43.183Z,443
2018-05-24T13:10:45.244Z,350
2018-05-24T13:11:47.709Z,463
2018-05-24T13:12:50.064Z,544
2018-05-24T13:13:52.115Z,575
2018-05-24T13:14:54.174Z,558
2018-05-24T13:15:56.236Z,548
2018-05-24T13:16:58.667Z,468
2018-05-24T13:18:00.678Z,446
2018-05-24T13:19:02.742Z,466
2018-05-24T13:20:04.809Z,458
2018-05-24T13:21:06.855Z,483
2018-05-24T13:22:08.922Z,455
2018-05-24T13:23:10.982Z,443
2018-05-24T13:24:13.502Z,419
2018-05-24T13:25:15.856Z,415
2018-05-24T13:26:18.216Z,381
2018-05-24T13:27:20.281Z,352
2018-05-24T13:28:22.343Z,345
2018-05-24T13:29:24.690Z,370
2018-05-24T13:30:26.748Z,193
2018-05-24T13:31:28.807Z,377
2018-05-24T13:32:30.868Z,412
2018-05-24T13:33:32.918Z,443
2018-05-24T13:34:34.991Z,428
2018-05-24T13:35:37.053Z,392
2018-05-24T13:36:39.409Z,420
2018-05-24T13:37:41.465Z,424
2018-05-24T13:38:43.530Z,138
2018-05-24T13:39:45.600Z,299
2018-05-24T13:40:47.661Z,266
2018-05-24T13:41:49.724Z,390
2018-05-24T13:42:51.788Z,231
2018-05-24T13:43:53.847Z,448
2018-05-24T13:44:55.895Z,440
2018-05-24T13:45:58.243Z,423
2018-05-24T13:47:00.313Z,427
2018-05-24T13:48:02.375Z,267
2018-05-24T13:49:05.025Z,432
2018-05-24T13:50:07.084Z,468
2018-05-24T13:51:09.153Z,474
2018-05-24T13:52:12.462Z,475
2018-05-24T13:53:14.521Z,409
2018-05-24T13:54:16.588Z,357
2018-05-24T13:55:18.649Z,352
2018-05-24T13:56:20.712Z,343
2018-05-24T13:57:22.773Z,344
2018-05-24T13:58:24.843Z,345
2018-05-24T13:59:27.295Z,308
2018-05-24T14:00:29.938Z,326
2018-05-24T14:01:32.326Z,341
2018-05-24T14:02:34.390Z,342
2018-05-24T14:03:36.493Z,354
2018-05-24T14:04:38.552Z,371
2018-05-24T14:05:40.912Z,370
2018-05-24T14:06:42.975Z,373
2018-05-24T14:07:45.037Z,355
2018-05-24T14:08:47.103Z,342
2018-05-24T14:09:49.170Z,320
2018-05-24T14:10:51.516Z,344
2018-05-24T14:11:53.585Z,384
2018-05-24T14:12:55.641Z,385
2018-05-24T14:13:57.705Z,396
2018-05-24T14:15:00.060Z,402
2018-05-24T14:16:02.421Z,397
2018-05-24T14:17:04.482Z,381
2018-05-24T14:18:06.551Z,367
2018-05-24T14:19:08.897Z,342
2018-05-24T14:20:10.963Z,352
2018-05-24T14:21:13.028Z,357
2018-05-24T14:22:15.087Z,358
2018-05-24T14:23:17.151Z,315
2018-05-24T14:24:19.217Z,357
2018-05-24T14:25:21.569Z,412
2018-05-24T14:26:23.641Z,420
2018-05-24T14:27:25.701Z,412
2018-05-24T14:28:27.767Z,408
2018-05-24T14:29:29.829Z,451
2018-05-24T14:30:31.894Z,452
2018-05-24T14:31:33.961Z,443
2018-05-24T14:32:36.017Z,421
2018-05-24T14:33:38.080Z,409
2018-05-24T14:34:40.154Z,454
2018-05-24T14:35:42.217Z,412
2018-05-24T14:36:44.283Z,338
2018-05-24T14:37:46.350Z,371
2018-05-24T14:38:48.421Z,385
2018-05-24T14:39:50.774Z,368
2018-05-24T14:40:52.848Z,405